sensor_id;sensor_type;location;lat;lon;timestamp;P1;durP1;ratioP1;P2;durP2;ratioP2
75496;SDS011;64074;47.540;19.072;2023-04-25T00:01:25;3.07;;;2.00;;
75496;SDS011;64074;47.540;19.072;2023-04-25T00:04:29;1.95;;;1.52;;
75496;SDS011;64074;47.540;19.072;2023-04-25T00:07:33;1.70;;;1.50;;
75496;SDS011;64074;47.540;19.072;2023-04-25T00:10:36;2.00;;;1.73;;
75496;SDS011;64074;47.540;19.072;2023-04-25T00:13:39;1.93;;;1.60;;
75496;SDS011;64074;47.540;19.072;2023-04-25T00:16:44;3.97;;;1.90;;
75496;SDS011;64074;47.540;19.072;2023-04-25T00:19:47;2.88;;;1.92;;
75496;SDS011;64074;47.540;19.072;2023-04-25T00:22:50;2.78;;;2.00;;
75496;SDS011;64074;47.540;19.072;2023-04-25T00:25:55;2.95;;;2.30;;
75496;SDS011;64074;47.540;19.072;2023-04-25T00:28:58;2.70;;;2.27;;
75496;SDS011;64074;47.540;19.072;2023-04-25T00:32:01;4.97;;;2.57;;
75496;SDS011;64074;47.540;19.072;2023-04-25T00:35:04;3.17;;;2.20;;
75496;SDS011;64074;47.540;19.072;2023-04-25T00:38:08;4.05;;;2.42;;
75496;SDS011;64074;47.540;19.072;2023-04-25T00:41:11;3.10;;;2.30;;
75496;SDS011;64074;47.540;19.072;2023-04-25T00:44:14;3.77;;;2.67;;
75496;SDS011;64074;47.540;19.072;2023-04-25T00:47:19;3.50;;;2.23;;
75496;SDS011;64074;47.540;19.072;2023-04-25T00:50:22;3.85;;;2.60;;
75496;SDS011;64074;47.540;19.072;2023-04-25T00:53:25;5.13;;;2.53;;
75496;SDS011;64074;47.540;19.072;2023-04-25T00:56:29;4.57;;;2.70;;
75496;SDS011;64074;47.540;19.072;2023-04-25T00:59:32;3.47;;;2.57;;
75496;SDS011;64074;47.540;19.072;2023-04-25T01:02:35;3.73;;;2.70;;
75496;SDS011;64074;47.540;19.072;2023-04-25T01:05:40;5.20;;;2.70;;
75496;SDS011;64074;47.540;19.072;2023-04-25T01:08:45;4.05;;;2.80;;
75496;SDS011;64074;47.540;19.072;2023-04-25T01:11:48;3.58;;;2.60;;
75496;SDS011;64074;47.540;19.072;2023-04-25T01:14:52;3.77;;;3.00;;
75496;SDS011;64074;47.540;19.072;2023-04-25T01:17:57;5.93;;;3.03;;
75496;SDS011;64074;47.540;19.072;2023-04-25T01:21:07;3.90;;;2.75;;
75496;SDS011;64074;47.540;19.072;2023-04-25T01:24:12;5.43;;;2.90;;
75496;SDS011;64074;47.540;19.072;2023-04-25T01:27:15;4.85;;;3.25;;
75496;SDS011;64074;47.540;19.072;2023-04-25T01:30:19;3.67;;;2.93;;
75496;SDS011;64074;47.540;19.072;2023-04-25T01:33:22;4.53;;;3.60;;
75496;SDS011;64074;47.540;19.072;2023-04-25T01:36:25;5.05;;;3.80;;
75496;SDS011;64074;47.540;19.072;2023-04-25T01:39:30;4.35;;;3.40;;
75496;SDS011;64074;47.540;19.072;2023-04-25T01:42:34;5.68;;;3.80;;
75496;SDS011;64074;47.540;19.072;2023-04-25T01:45:39;4.90;;;3.40;;
75496;SDS011;64074;47.540;19.072;2023-04-25T01:48:45;5.33;;;3.53;;
75496;SDS011;64074;47.540;19.072;2023-04-25T01:51:48;4.68;;;3.25;;
75496;SDS011;64074;47.540;19.072;2023-04-25T01:54:53;4.82;;;3.58;;
75496;SDS011;64074;47.540;19.072;2023-04-25T01:57:56;4.57;;;3.35;;
75496;SDS011;64074;47.540;19.072;2023-04-25T02:01:13;8.10;;;3.37;;
75496;SDS011;64074;47.540;19.072;2023-04-25T02:04:22;4.53;;;3.37;;
75496;SDS011;64074;47.540;19.072;2023-04-25T02:07:26;5.10;;;3.20;;
75496;SDS011;64074;47.540;19.072;2023-04-25T02:10:30;5.35;;;3.40;;
75496;SDS011;64074;47.540;19.072;2023-04-25T02:13:46;4.20;;;3.40;;
75496;SDS011;64074;47.540;19.072;2023-04-25T02:17:14;5.23;;;3.30;;
75496;SDS011;64074;47.540;19.072;2023-04-25T02:20:17;4.87;;;3.57;;
75496;SDS011;64074;47.540;19.072;2023-04-25T02:23:19;4.25;;;3.17;;
75496;SDS011;64074;47.540;19.072;2023-04-25T02:26:22;4.78;;;3.08;;
75496;SDS011;64074;47.540;19.072;2023-04-25T02:29:29;5.18;;;3.65;;
75496;SDS011;64074;47.540;19.072;2023-04-25T02:32:33;5.50;;;3.20;;
75496;SDS011;64074;47.540;19.072;2023-04-25T02:35:37;4.40;;;3.50;;
75496;SDS011;64074;47.540;19.072;2023-04-25T02:38:39;3.75;;;2.70;;
75496;SDS011;64074;47.540;19.072;2023-04-25T02:41:42;3.80;;;2.90;;
75496;SDS011;64074;47.540;19.072;2023-04-25T02:44:46;5.15;;;3.00;;
75496;SDS011;64074;47.540;19.072;2023-04-25T02:47:48;4.83;;;3.40;;
75496;SDS011;64074;47.540;19.072;2023-04-25T02:50:54;4.17;;;2.97;;
75496;SDS011;64074;47.540;19.072;2023-04-25T02:53:58;4.72;;;3.10;;
75496;SDS011;64074;47.540;19.072;2023-04-25T02:57:01;4.88;;;2.53;;
75496;SDS011;64074;47.540;19.072;2023-04-25T03:00:10;3.95;;;2.92;;
75496;SDS011;64074;47.540;19.072;2023-04-25T03:03:14;5.30;;;2.90;;
75496;SDS011;64074;47.540;19.072;2023-04-25T03:06:20;3.70;;;2.83;;
75496;SDS011;64074;47.540;19.072;2023-04-25T03:09:23;5.47;;;3.13;;
75496;SDS011;64074;47.540;19.072;2023-04-25T03:12:26;4.90;;;3.33;;
75496;SDS011;64074;47.540;19.072;2023-04-25T03:15:29;3.90;;;3.30;;
75496;SDS011;64074;47.540;19.072;2023-04-25T03:18:33;5.97;;;3.40;;
75496;SDS011;64074;47.540;19.072;2023-04-25T03:21:36;4.07;;;3.33;;
75496;SDS011;64074;47.540;19.072;2023-04-25T03:24:39;4.10;;;3.50;;
75496;SDS011;64074;47.540;19.072;2023-04-25T03:27:42;3.63;;;3.15;;
75496;SDS011;64074;47.540;19.072;2023-04-25T03:30:45;4.75;;;3.20;;
75496;SDS011;64074;47.540;19.072;2023-04-25T03:33:48;4.80;;;3.27;;
75496;SDS011;64074;47.540;19.072;2023-04-25T03:36:55;4.23;;;3.00;;
75496;SDS011;64074;47.540;19.072;2023-04-25T03:39:58;4.53;;;3.38;;
75496;SDS011;64074;47.540;19.072;2023-04-25T03:43:10;7.38;;;3.10;;
75496;SDS011;64074;47.540;19.072;2023-04-25T03:46:18;4.43;;;3.22;;
75496;SDS011;64074;47.540;19.072;2023-04-25T03:49:24;6.53;;;3.27;;
75496;SDS011;64074;47.540;19.072;2023-04-25T03:52:36;5.17;;;3.70;;
75496;SDS011;64074;47.540;19.072;2023-04-25T03:55:38;4.40;;;3.30;;
75496;SDS011;64074;47.540;19.072;2023-04-25T03:58:44;4.43;;;3.15;;
75496;SDS011;64074;47.540;19.072;2023-04-25T04:01:48;6.22;;;3.60;;
75496;SDS011;64074;47.540;19.072;2023-04-25T04:04:51;4.87;;;3.63;;
75496;SDS011;64074;47.540;19.072;2023-04-25T04:07:55;5.97;;;3.60;;
75496;SDS011;64074;47.540;19.072;2023-04-25T04:10:58;6.07;;;3.38;;
75496;SDS011;64074;47.540;19.072;2023-04-25T04:14:02;4.65;;;3.58;;
75496;SDS011;64074;47.540;19.072;2023-04-25T04:17:04;4.53;;;3.42;;
75496;SDS011;64074;47.540;19.072;2023-04-25T04:20:08;5.10;;;3.70;;
75496;SDS011;64074;47.540;19.072;2023-04-25T04:23:15;4.60;;;3.73;;
75496;SDS011;64074;47.540;19.072;2023-04-25T04:26:18;4.38;;;3.55;;
75496;SDS011;64074;47.540;19.072;2023-04-25T04:29:34;5.38;;;3.83;;
75496;SDS011;64074;47.540;19.072;2023-04-25T04:32:51;6.15;;;3.42;;
75496;SDS011;64074;47.540;19.072;2023-04-25T04:35:55;5.07;;;3.90;;
75496;SDS011;64074;47.540;19.072;2023-04-25T04:38:58;7.40;;;3.63;;
75496;SDS011;64074;47.540;19.072;2023-04-25T04:42:24;6.05;;;4.15;;
75496;SDS011;64074;47.540;19.072;2023-04-25T04:45:34;4.30;;;3.17;;
75496;SDS011;64074;47.540;19.072;2023-04-25T04:49:06;5.50;;;3.42;;
75496;SDS011;64074;47.540;19.072;2023-04-25T04:52:30;5.80;;;3.47;;
75496;SDS011;64074;47.540;19.072;2023-04-25T04:55:49;8.47;;;3.70;;
75496;SDS011;64074;47.540;19.072;2023-04-25T04:59:22;6.28;;;3.92;;
75496;SDS011;64074;47.540;19.072;2023-04-25T05:02:40;7.07;;;3.60;;
75496;SDS011;64074;47.540;19.072;2023-04-25T05:06:02;7.90;;;5.25;;
75496;SDS011;64074;47.540;19.072;2023-04-25T05:09:26;6.37;;;4.10;;
75496;SDS011;64074;47.540;19.072;2023-04-25T05:12:50;5.10;;;4.13;;
75496;SDS011;64074;47.540;19.072;2023-04-25T05:15:58;7.40;;;4.57;;
75496;SDS011;64074;47.540;19.072;2023-04-25T05:19:20;5.50;;;3.92;;
75496;SDS011;64074;47.540;19.072;2023-04-25T05:22:49;6.05;;;4.07;;
75496;SDS011;64074;47.540;19.072;2023-04-25T05:26:07;7.60;;;4.17;;
75496;SDS011;64074;47.540;19.072;2023-04-25T05:29:27;6.67;;;4.07;;
75496;SDS011;64074;47.540;19.072;2023-04-25T05:32:49;6.40;;;4.30;;
75496;SDS011;64074;47.540;19.072;2023-04-25T05:35:53;6.43;;;3.95;;
75496;SDS011;64074;47.540;19.072;2023-04-25T05:38:57;6.03;;;3.90;;
75496;SDS011;64074;47.540;19.072;2023-04-25T05:42:20;6.23;;;4.50;;
75496;SDS011;64074;47.540;19.072;2023-04-25T05:45:50;6.87;;;4.50;;
75496;SDS011;64074;47.540;19.072;2023-04-25T05:49:03;7.90;;;5.03;;
75496;SDS011;64074;47.540;19.072;2023-04-25T05:52:16;9.85;;;5.88;;
75496;SDS011;64074;47.540;19.072;2023-04-25T05:55:40;9.98;;;6.38;;
75496;SDS011;64074;47.540;19.072;2023-04-25T05:58:55;8.97;;;5.80;;
75496;SDS011;64074;47.540;19.072;2023-04-25T06:01:58;8.40;;;5.80;;
75496;SDS011;64074;47.540;19.072;2023-04-25T06:05:06;8.80;;;6.05;;
75496;SDS011;64074;47.540;19.072;2023-04-25T06:08:10;16.48;;;6.28;;
75496;SDS011;64074;47.540;19.072;2023-04-25T06:11:18;9.88;;;6.40;;
75496;SDS011;64074;47.540;19.072;2023-04-25T06:14:21;10.10;;;6.40;;
75496;SDS011;64074;47.540;19.072;2023-04-25T06:17:26;10.83;;;6.83;;
75496;SDS011;64074;47.540;19.072;2023-04-25T06:20:29;10.85;;;6.72;;
75496;SDS011;64074;47.540;19.072;2023-04-25T06:23:37;8.55;;;5.93;;
75496;SDS011;64074;47.540;19.072;2023-04-25T06:26:42;9.70;;;6.53;;
75496;SDS011;64074;47.540;19.072;2023-04-25T06:29:46;11.67;;;6.63;;
75496;SDS011;64074;47.540;19.072;2023-04-25T06:32:49;10.20;;;6.63;;
75496;SDS011;64074;47.540;19.072;2023-04-25T06:35:52;13.30;;;7.00;;
75496;SDS011;64074;47.540;19.072;2023-04-25T06:38:59;12.88;;;7.38;;
75496;SDS011;64074;47.540;19.072;2023-04-25T06:42:02;11.70;;;7.03;;
75496;SDS011;64074;47.540;19.072;2023-04-25T06:45:18;8.27;;;6.27;;
75496;SDS011;64074;47.540;19.072;2023-04-25T06:48:21;9.50;;;6.97;;
75496;SDS011;64074;47.540;19.072;2023-04-25T06:51:26;13.55;;;8.82;;
75496;SDS011;64074;47.540;19.072;2023-04-25T06:54:31;11.63;;;7.85;;
75496;SDS011;64074;47.540;19.072;2023-04-25T06:57:41;8.52;;;6.25;;
75496;SDS011;64074;47.540;19.072;2023-04-25T07:01:04;7.53;;;5.73;;
75496;SDS011;64074;47.540;19.072;2023-04-25T07:04:08;8.33;;;6.03;;
75496;SDS011;64074;47.540;19.072;2023-04-25T07:07:17;8.38;;;5.90;;
75496;SDS011;64074;47.540;19.072;2023-04-25T07:10:35;8.23;;;5.80;;
75496;SDS011;64074;47.540;19.072;2023-04-25T07:13:41;9.75;;;6.28;;
75496;SDS011;64074;47.540;19.072;2023-04-25T07:16:57;8.47;;;6.10;;
75496;SDS011;64074;47.540;19.072;2023-04-25T07:20:05;9.33;;;6.20;;
75496;SDS011;64074;47.540;19.072;2023-04-25T07:23:12;8.40;;;5.95;;
75496;SDS011;64074;47.540;19.072;2023-04-25T07:26:19;9.32;;;6.20;;
75496;SDS011;64074;47.540;19.072;2023-04-25T07:29:49;8.95;;;6.15;;
75496;SDS011;64074;47.540;19.072;2023-04-25T07:32:52;9.30;;;5.70;;
75496;SDS011;64074;47.540;19.072;2023-04-25T07:35:56;7.70;;;5.20;;
75496;SDS011;64074;47.540;19.072;2023-04-25T07:38:59;6.85;;;5.10;;
75496;SDS011;64074;47.540;19.072;2023-04-25T07:42:02;8.50;;;5.45;;
75496;SDS011;64074;47.540;19.072;2023-04-25T07:45:06;6.28;;;5.15;;
75496;SDS011;64074;47.540;19.072;2023-04-25T07:48:10;8.40;;;6.37;;
75496;SDS011;64074;47.540;19.072;2023-04-25T07:51:17;7.23;;;4.80;;
75496;SDS011;64074;47.540;19.072;2023-04-25T07:54:24;6.35;;;4.90;;
75496;SDS011;64074;47.540;19.072;2023-04-25T07:57:34;6.10;;;4.72;;
75496;SDS011;64074;47.540;19.072;2023-04-25T08:00:38;6.75;;;5.25;;
75496;SDS011;64074;47.540;19.072;2023-04-25T08:04:17;6.67;;;4.33;;
75496;SDS011;64074;47.540;19.072;2023-04-25T08:07:42;5.00;;;4.50;;
75496;SDS011;64074;47.540;19.072;2023-04-25T08:10:46;4.75;;;4.20;;
75496;SDS011;64074;47.540;19.072;2023-04-25T08:13:52;5.72;;;4.25;;
75496;SDS011;64074;47.540;19.072;2023-04-25T08:16:56;5.65;;;4.30;;
75496;SDS011;64074;47.540;19.072;2023-04-25T08:20:02;5.00;;;3.80;;
75496;SDS011;64074;47.540;19.072;2023-04-25T08:23:09;7.43;;;4.90;;
75496;SDS011;64074;47.540;19.072;2023-04-25T08:26:37;4.40;;;3.40;;
75496;SDS011;64074;47.540;19.072;2023-04-25T08:29:42;4.15;;;3.25;;
75496;SDS011;64074;47.540;19.072;2023-04-25T08:32:46;3.58;;;3.25;;
75496;SDS011;64074;47.540;19.072;2023-04-25T08:36:25;6.53;;;4.20;;
75496;SDS011;64074;47.540;19.072;2023-04-25T08:39:53;5.77;;;3.70;;
75496;SDS011;64074;47.540;19.072;2023-04-25T08:43:04;3.90;;;3.15;;
75496;SDS011;64074;47.540;19.072;2023-04-25T08:46:12;6.05;;;3.80;;
75496;SDS011;64074;47.540;19.072;2023-04-25T08:49:48;4.47;;;3.75;;
75496;SDS011;64074;47.540;19.072;2023-04-25T08:52:54;6.60;;;4.73;;
75496;SDS011;64074;47.540;19.072;2023-04-25T08:55:58;4.90;;;4.13;;
75496;SDS011;64074;47.540;19.072;2023-04-25T08:59:09;5.55;;;3.97;;
75496;SDS011;64074;47.540;19.072;2023-04-25T09:02:13;6.60;;;4.25;;
75496;SDS011;64074;47.540;19.072;2023-04-25T09:05:22;6.32;;;4.18;;
75496;SDS011;64074;47.540;19.072;2023-04-25T09:08:28;4.70;;;3.80;;
75496;SDS011;64074;47.540;19.072;2023-04-25T09:11:32;5.57;;;4.30;;
75496;SDS011;64074;47.540;19.072;2023-04-25T09:14:38;6.93;;;4.50;;
75496;SDS011;64074;47.540;19.072;2023-04-25T09:18:00;5.88;;;4.28;;
75496;SDS011;64074;47.540;19.072;2023-04-25T09:21:12;5.43;;;4.53;;
75496;SDS011;64074;47.540;19.072;2023-04-25T09:27:53;7.93;;;5.10;;
75496;SDS011;64074;47.540;19.072;2023-04-25T09:31:04;5.60;;;3.40;;
75496;SDS011;64074;47.540;19.072;2023-04-25T09:34:15;5.97;;;3.55;;
75496;SDS011;64074;47.540;19.072;2023-04-25T09:37:30;8.98;;;6.72;;
75496;SDS011;64074;47.540;19.072;2023-04-25T09:41:11;3.70;;;3.20;;
75496;SDS011;64074;47.540;19.072;2023-04-25T09:44:24;3.53;;;3.20;;
75496;SDS011;64074;47.540;19.072;2023-04-25T09:47:41;3.05;;;2.75;;
75496;SDS011;64074;47.540;19.072;2023-04-25T09:51:07;4.75;;;3.00;;
75496;SDS011;64074;47.540;19.072;2023-04-25T09:54:11;5.35;;;4.07;;
75496;SDS011;64074;47.540;19.072;2023-04-25T09:57:23;3.00;;;2.00;;
75496;SDS011;64074;47.540;19.072;2023-04-25T10:00:30;2.13;;;1.93;;
75496;SDS011;64074;47.540;19.072;2023-04-25T10:03:48;2.70;;;2.30;;
75496;SDS011;64074;47.540;19.072;2023-04-25T10:07:25;2.90;;;2.13;;
75496;SDS011;64074;47.540;19.072;2023-04-25T10:10:32;3.97;;;2.42;;
75496;SDS011;64074;47.540;19.072;2023-04-25T10:13:38;4.60;;;2.30;;
75496;SDS011;64074;47.540;19.072;2023-04-25T10:16:43;2.00;;;1.80;;
75496;SDS011;64074;47.540;19.072;2023-04-25T10:19:47;2.85;;;1.45;;
75496;SDS011;64074;47.540;19.072;2023-04-25T10:22:53;2.63;;;1.70;;
75496;SDS011;64074;47.540;19.072;2023-04-25T10:25:58;1.60;;;1.33;;
75496;SDS011;64074;47.540;19.072;2023-04-25T10:29:02;1.60;;;1.10;;
75496;SDS011;64074;47.540;19.072;2023-04-25T10:32:07;0.80;;;0.80;;
75496;SDS011;64074;47.540;19.072;2023-04-25T10:35:24;2.03;;;1.52;;
75496;SDS011;64074;47.540;19.072;2023-04-25T10:38:30;1.13;;;1.00;;
75496;SDS011;64074;47.540;19.072;2023-04-25T10:41:55;2.00;;;1.30;;
75496;SDS011;64074;47.540;19.072;2023-04-25T10:45:01;0.87;;;0.83;;
75496;SDS011;64074;47.540;19.072;2023-04-25T10:48:24;3.73;;;1.27;;
75496;SDS011;64074;47.540;19.072;2023-04-25T10:51:34;0.80;;;0.80;;
75496;SDS011;64074;47.540;19.072;2023-04-25T10:54:57;3.22;;;0.98;;
75496;SDS011;64074;47.540;19.072;2023-04-25T10:58:00;0.88;;;0.70;;
75496;SDS011;64074;47.540;19.072;2023-04-25T11:01:06;0.83;;;0.70;;
75496;SDS011;64074;47.540;19.072;2023-04-25T11:10:38;1.23;;;1.08;;
75496;SDS011;64074;47.540;19.072;2023-04-25T11:13:50;0.75;;;0.22;;
75496;SDS011;64074;47.540;19.072;2023-04-25T11:16:54;0.43;;;0.33;;
75496;SDS011;64074;47.540;19.072;2023-04-25T11:20:02;0.57;;;0.57;;
75496;SDS011;64074;47.540;19.072;2023-04-25T11:23:10;0.57;;;0.57;;
75496;SDS011;64074;47.540;19.072;2023-04-25T11:26:13;0.68;;;0.32;;
75496;SDS011;64074;47.540;19.072;2023-04-25T11:29:17;0.82;;;0.40;;
75496;SDS011;64074;47.540;19.072;2023-04-25T11:32:21;2.10;;;0.57;;
75496;SDS011;64074;47.540;19.072;2023-04-25T11:35:26;0.60;;;0.60;;
75496;SDS011;64074;47.540;19.072;2023-04-25T11:38:30;0.73;;;0.55;;
75496;SDS011;64074;47.540;19.072;2023-04-25T11:41:36;2.53;;;0.63;;
75496;SDS011;64074;47.540;19.072;2023-04-25T11:44:41;0.75;;;0.50;;
75496;SDS011;64074;47.540;19.072;2023-04-25T11:47:44;0.40;;;0.40;;
75496;SDS011;64074;47.540;19.072;2023-04-25T11:50:47;1.87;;;0.50;;
75496;SDS011;64074;47.540;19.072;2023-04-25T11:53:50;1.30;;;0.70;;
75496;SDS011;64074;47.540;19.072;2023-04-25T11:56:54;0.70;;;0.40;;
75496;SDS011;64074;47.540;19.072;2023-04-25T12:00:11;0.60;;;0.57;;
75496;SDS011;64074;47.540;19.072;2023-04-25T12:04:14;0.53;;;0.53;;
75496;SDS011;64074;47.540;19.072;2023-04-25T12:07:28;0.70;;;0.70;;
75496;SDS011;64074;47.540;19.072;2023-04-25T12:10:33;1.67;;;1.23;;
75496;SDS011;64074;47.540;19.072;2023-04-25T12:13:52;0.60;;;0.60;;
75496;SDS011;64074;47.540;19.072;2023-04-25T12:16:59;1.33;;;1.05;;
75496;SDS011;64074;47.540;19.072;2023-04-25T12:20:09;1.40;;;1.13;;
75496;SDS011;64074;47.540;19.072;2023-04-25T12:23:29;1.20;;;1.10;;
75496;SDS011;64074;47.540;19.072;2023-04-25T12:26:46;4.07;;;1.10;;
75496;SDS011;64074;47.540;19.072;2023-04-25T12:29:53;1.40;;;1.30;;
75496;SDS011;64074;47.540;19.072;2023-04-25T12:32:58;1.02;;;0.93;;
75496;SDS011;64074;47.540;19.072;2023-04-25T12:36:01;1.30;;;1.20;;
75496;SDS011;64074;47.540;19.072;2023-04-25T12:39:18;2.90;;;1.70;;
75496;SDS011;64074;47.540;19.072;2023-04-25T12:42:23;1.60;;;1.50;;
75496;SDS011;64074;47.540;19.072;2023-04-25T12:45:26;1.92;;;1.52;;
75496;SDS011;64074;47.540;19.072;2023-04-25T12:48:29;1.60;;;1.50;;
75496;SDS011;64074;47.540;19.072;2023-04-25T12:51:36;1.40;;;1.30;;
75496;SDS011;64074;47.540;19.072;2023-04-25T12:54:39;1.77;;;1.33;;
75496;SDS011;64074;47.540;19.072;2023-04-25T12:57:42;3.53;;;1.83;;
75496;SDS011;64074;47.540;19.072;2023-04-25T13:00:45;1.75;;;1.52;;
75496;SDS011;64074;47.540;19.072;2023-04-25T13:03:50;1.90;;;1.60;;
75496;SDS011;64074;47.540;19.072;2023-04-25T13:06:53;3.80;;;1.23;;
75496;SDS011;64074;47.540;19.072;2023-04-25T13:09:56;1.83;;;1.40;;
75496;SDS011;64074;47.540;19.072;2023-04-25T13:12:59;3.22;;;1.75;;
75496;SDS011;64074;47.540;19.072;2023-04-25T13:16:04;3.05;;;1.55;;
75496;SDS011;64074;47.540;19.072;2023-04-25T13:19:07;4.88;;;1.40;;
75496;SDS011;64074;47.540;19.072;2023-04-25T13:22:13;1.73;;;1.60;;
75496;SDS011;64074;47.540;19.072;2023-04-25T13:25:19;1.87;;;1.77;;
75496;SDS011;64074;47.540;19.072;2023-04-25T13:28:23;2.63;;;2.15;;
75496;SDS011;64074;47.540;19.072;2023-04-25T13:31:28;1.67;;;1.58;;
75496;SDS011;64074;47.540;19.072;2023-04-25T13:34:32;2.00;;;1.90;;
75496;SDS011;64074;47.540;19.072;2023-04-25T13:37:36;1.93;;;1.60;;
75496;SDS011;64074;47.540;19.072;2023-04-25T13:40:39;2.40;;;2.20;;
75496;SDS011;64074;47.540;19.072;2023-04-25T13:43:43;2.88;;;1.65;;
75496;SDS011;64074;47.540;19.072;2023-04-25T13:46:45;1.98;;;1.88;;
75496;SDS011;64074;47.540;19.072;2023-04-25T13:49:49;1.73;;;1.63;;
75496;SDS011;64074;47.540;19.072;2023-04-25T13:52:52;1.77;;;1.57;;
75496;SDS011;64074;47.540;19.072;2023-04-25T13:55:54;2.27;;;1.67;;
75496;SDS011;64074;47.540;19.072;2023-04-25T13:58:57;1.67;;;1.58;;
75496;SDS011;64074;47.540;19.072;2023-04-25T14:02:00;2.13;;;1.85;;
75496;SDS011;64074;47.540;19.072;2023-04-25T14:05:03;2.58;;;2.38;;
75496;SDS011;64074;47.540;19.072;2023-04-25T14:08:08;2.20;;;2.00;;
75496;SDS011;64074;47.540;19.072;2023-04-25T14:11:13;1.90;;;1.80;;
75496;SDS011;64074;47.540;19.072;2023-04-25T14:14:15;2.10;;;1.90;;
75496;SDS011;64074;47.540;19.072;2023-04-25T14:17:18;3.17;;;2.13;;
75496;SDS011;64074;47.540;19.072;2023-04-25T14:20:23;2.10;;;1.90;;
75496;SDS011;64074;47.540;19.072;2023-04-25T14:23:26;2.67;;;1.93;;
75496;SDS011;64074;47.540;19.072;2023-04-25T14:26:28;2.00;;;1.90;;
75496;SDS011;64074;47.540;19.072;2023-04-25T14:29:32;6.40;;;1.73;;
75496;SDS011;64074;47.540;19.072;2023-04-25T14:32:35;1.60;;;1.15;;
75496;SDS011;64074;47.540;19.072;2023-04-25T14:35:38;3.42;;;2.00;;
75496;SDS011;64074;47.540;19.072;2023-04-25T14:38:42;3.77;;;1.87;;
75496;SDS011;64074;47.540;19.072;2023-04-25T14:41:45;1.80;;;1.70;;
75496;SDS011;64074;47.540;19.072;2023-04-25T14:44:49;2.25;;;2.05;;
75496;SDS011;64074;47.540;19.072;2023-04-25T14:47:53;3.65;;;1.88;;
75496;SDS011;64074;47.540;19.072;2023-04-25T14:50:56;2.72;;;1.73;;
75496;SDS011;64074;47.540;19.072;2023-04-25T14:53:59;1.30;;;1.17;;
75496;SDS011;64074;47.540;19.072;2023-04-25T14:57:02;1.97;;;1.87;;
75496;SDS011;64074;47.540;19.072;2023-04-25T15:00:06;2.33;;;1.88;;
75496;SDS011;64074;47.540;19.072;2023-04-25T15:03:11;1.35;;;1.25;;
75496;SDS011;64074;47.540;19.072;2023-04-25T15:06:16;2.20;;;2.00;;
75496;SDS011;64074;47.540;19.072;2023-04-25T15:09:18;2.33;;;1.70;;
75496;SDS011;64074;47.540;19.072;2023-04-25T15:12:22;2.47;;;2.27;;
75496;SDS011;64074;47.540;19.072;2023-04-25T15:15:26;1.80;;;1.70;;
75496;SDS011;64074;47.540;19.072;2023-04-25T15:18:28;2.03;;;1.50;;
75496;SDS011;64074;47.540;19.072;2023-04-25T15:21:31;3.05;;;1.40;;
75496;SDS011;64074;47.540;19.072;2023-04-25T15:24:34;1.27;;;1.17;;
75496;SDS011;64074;47.540;19.072;2023-04-25T15:27:38;1.40;;;1.30;;
75496;SDS011;64074;47.540;19.072;2023-04-25T15:30:47;2.60;;;1.50;;
75496;SDS011;64074;47.540;19.072;2023-04-25T15:33:50;1.30;;;1.20;;
75496;SDS011;64074;47.540;19.072;2023-04-25T15:36:54;2.13;;;1.35;;
75496;SDS011;64074;47.540;19.072;2023-04-25T15:40:00;1.83;;;1.37;;
75496;SDS011;64074;47.540;19.072;2023-04-25T15:43:08;2.53;;;1.30;;
75496;SDS011;64074;47.540;19.072;2023-04-25T15:46:16;1.40;;;1.30;;
75496;SDS011;64074;47.540;19.072;2023-04-25T15:49:20;3.00;;;1.40;;
75496;SDS011;64074;47.540;19.072;2023-04-25T15:52:24;2.28;;;1.80;;
75496;SDS011;64074;47.540;19.072;2023-04-25T15:55:27;2.87;;;2.20;;
75496;SDS011;64074;47.540;19.072;2023-04-25T15:58:30;6.67;;;2.27;;
75496;SDS011;64074;47.540;19.072;2023-04-25T16:01:33;4.18;;;2.67;;
75496;SDS011;64074;47.540;19.072;2023-04-25T16:04:37;4.10;;;2.63;;
75496;SDS011;64074;47.540;19.072;2023-04-25T16:07:41;2.80;;;2.30;;
75496;SDS011;64074;47.540;19.072;2023-04-25T16:10:44;4.53;;;2.70;;
75496;SDS011;64074;47.540;19.072;2023-04-25T16:13:47;4.50;;;2.47;;
75496;SDS011;64074;47.540;19.072;2023-04-25T16:16:52;3.53;;;2.22;;
75496;SDS011;64074;47.540;19.072;2023-04-25T16:19:56;3.80;;;2.70;;
75496;SDS011;64074;47.540;19.072;2023-04-25T16:22:59;3.92;;;2.13;;
75496;SDS011;64074;47.540;19.072;2023-04-25T16:26:03;3.47;;;2.50;;
75496;SDS011;64074;47.540;19.072;2023-04-25T16:29:06;3.97;;;2.63;;
75496;SDS011;64074;47.540;19.072;2023-04-25T16:32:09;3.55;;;2.70;;
75496;SDS011;64074;47.540;19.072;2023-04-25T16:35:13;4.50;;;2.67;;
75496;SDS011;64074;47.540;19.072;2023-04-25T16:38:16;3.78;;;2.70;;
75496;SDS011;64074;47.540;19.072;2023-04-25T16:41:19;3.57;;;2.83;;
75496;SDS011;64074;47.540;19.072;2023-04-25T16:44:22;3.40;;;2.70;;
75496;SDS011;64074;47.540;19.072;2023-04-25T16:47:25;4.97;;;3.15;;
75496;SDS011;64074;47.540;19.072;2023-04-25T16:50:28;4.40;;;3.08;;
75496;SDS011;64074;47.540;19.072;2023-04-25T16:53:31;4.10;;;2.75;;
75496;SDS011;64074;47.540;19.072;2023-04-25T16:56:34;4.67;;;3.20;;
75496;SDS011;64074;47.540;19.072;2023-04-25T16:59:37;5.03;;;2.90;;
75496;SDS011;64074;47.540;19.072;2023-04-25T17:02:41;4.22;;;3.20;;
75496;SDS011;64074;47.540;19.072;2023-04-25T17:05:44;5.25;;;3.10;;
75496;SDS011;64074;47.540;19.072;2023-04-25T17:08:47;4.63;;;2.83;;
75496;SDS011;64074;47.540;19.072;2023-04-25T17:11:50;5.47;;;3.30;;
75496;SDS011;64074;47.540;19.072;2023-04-25T17:14:53;5.13;;;3.20;;
75496;SDS011;64074;47.540;19.072;2023-04-25T17:17:56;4.53;;;3.22;;
75496;SDS011;64074;47.540;19.072;2023-04-25T17:20:58;6.78;;;3.60;;
75496;SDS011;64074;47.540;19.072;2023-04-25T17:24:01;4.47;;;2.97;;
75496;SDS011;64074;47.540;19.072;2023-04-25T17:27:07;5.27;;;3.37;;
75496;SDS011;64074;47.540;19.072;2023-04-25T17:30:10;5.47;;;3.40;;
75496;SDS011;64074;47.540;19.072;2023-04-25T17:33:14;4.40;;;3.30;;
75496;SDS011;64074;47.540;19.072;2023-04-25T17:36:17;5.63;;;3.20;;
75496;SDS011;64074;47.540;19.072;2023-04-25T17:39:20;5.05;;;3.10;;
75496;SDS011;64074;47.540;19.072;2023-04-25T17:42:23;4.37;;;3.13;;
75496;SDS011;64074;47.540;19.072;2023-04-25T17:45:26;3.63;;;2.83;;
75496;SDS011;64074;47.540;19.072;2023-04-25T17:48:30;3.42;;;2.90;;
75496;SDS011;64074;47.540;19.072;2023-04-25T17:51:33;3.63;;;2.70;;
75496;SDS011;64074;47.540;19.072;2023-04-25T17:54:35;3.92;;;2.72;;
75496;SDS011;64074;47.540;19.072;2023-04-25T17:57:39;5.90;;;3.40;;
75496;SDS011;64074;47.540;19.072;2023-04-25T18:00:41;3.78;;;3.10;;
75496;SDS011;64074;47.540;19.072;2023-04-25T18:03:45;4.97;;;3.05;;
75496;SDS011;64074;47.540;19.072;2023-04-25T18:06:51;4.45;;;2.92;;
75496;SDS011;64074;47.540;19.072;2023-04-25T18:09:54;4.53;;;3.40;;
75496;SDS011;64074;47.540;19.072;2023-04-25T18:12:58;4.90;;;3.20;;
75496;SDS011;64074;47.540;19.072;2023-04-25T18:16:00;5.35;;;3.40;;
75496;SDS011;64074;47.540;19.072;2023-04-25T18:19:04;6.05;;;3.58;;
75496;SDS011;64074;47.540;19.072;2023-04-25T18:22:13;6.45;;;3.40;;
75496;SDS011;64074;47.540;19.072;2023-04-25T18:25:16;7.03;;;3.70;;
75496;SDS011;64074;47.540;19.072;2023-04-25T18:28:19;6.00;;;3.50;;
75496;SDS011;64074;47.540;19.072;2023-04-25T18:31:23;6.10;;;3.80;;
75496;SDS011;64074;47.540;19.072;2023-04-25T18:34:28;7.43;;;3.90;;
75496;SDS011;64074;47.540;19.072;2023-04-25T18:37:32;6.45;;;3.40;;
75496;SDS011;64074;47.540;19.072;2023-04-25T18:40:35;4.07;;;3.20;;